Time,TemperatureF,DewpointF,PressureIn,WindDirection,WindDirectionDegrees,WindSpeedMPH,WindSpeedGustMPH,Humidity,HourlyPrecipIn,Conditions,Clouds,dailyrainin,SoftwareType,DateUTC
2013-03-07 00:00:00,45.1,31.6,30.16,NNW,328,1.0,1.0,59,0.00,,,0.00,Wunderground v.1.15,2013-03-07 05:00:00,
2013-03-07 00:10:00,44.9,31.8,30.17,West,278,1.0,1.0,60,0.00,,,0.00,Wunderground v.1.15,2013-03-07 05:10:00,
2013-03-07 00:20:00,44.7,31.7,30.16,NNW,329,1.0,3.0,60,0.00,,,0.00,Wunderground v.1.15,2013-03-07 05:20:00,
2013-03-07 00:24:00,44.7,31.7,30.16,NW,319,1.0,3.0,60,0.00,,,0.00,Wunderground v.1.15,2013-03-07 05:24:00,
2013-03-07 00:30:00,44.6,31.6,30.16,NNW,336,1.0,1.0,60,0.00,,,0.00,Wunderground v.1.15,2013-03-07 05:30:00,
2013-03-07 00:40:00,44.3,31.7,30.16,NW,324,1.0,1.0,61,0.00,,,0.00,Wunderground v.1.15,2013-03-07 05:40:00,
2013-03-07 00:45:00,44.3,31.7,30.16,NNW,334,1.0,1.0,61,0.00,,,0.00,Wunderground v.1.15,2013-03-07 05:45:00,
2013-03-07 00:50:00,44.1,31.5,30.16,NNW,338,1.0,1.0,61,0.00,,,0.00,Wunderground v.1.15,2013-03-07 05:50:00,
2013-03-07 01:00:00,43.6,31.4,30.16,WNW,294,0.0,0.0,62,0.00,,,0.00,Wunderground v.1.15,2013-03-07 06:00:00,
2013-03-07 01:10:00,43.1,31.4,30.16,NW,326,0.0,5.0,63,0.00,,,0.00,Wunderground v.1.15,2013-03-07 06:10:00,
2013-03-07 01:20:00,42.9,31.2,30.16,West,280,0.0,5.0,63,0.00,,,0.00,Wunderground v.1.15,2013-03-07 06:20:00,
2013-03-07 01:29:00,42.7,31.0,30.16,NW,321,0.0,0.0,63,0.00,,,0.00,Wunderground v.1.15,2013-03-07 06:29:00,
2013-03-07 01:35:00,42.7,31.0,30.16,NNW,330,0.0,0.0,63,0.00,,,0.00,Wunderground v.1.15,2013-03-07 06:35:00,
2013-03-07 01:45:00,42.4,31.1,30.16,WNW,300,0.0,0.0,64,0.00,,,0.00,Wunderground v.1.15,2013-03-07 06:45:00,
2013-03-07 01:55:00,42.0,30.7,30.16,WSW,253,0.0,0.0,64,0.00,,,0.00,Wunderground v.1.15,2013-03-07 06:55:00,
2013-03-07 02:05:00,41.2,30.3,30.16,WSW,253,0.0,4.0,65,0.00,,,0.00,Wunderground v.1.15,2013-03-07 07:05:00,
2013-03-07 02:15:00,40.3,30.2,30.16,WSW,253,0.0,4.0,67,0.00,,,0.00,Wunderground v.1.15,2013-03-07 07:15:00,
2013-03-07 02:20:00,40.0,30.3,30.16,WSW,253,0.0,4.0,68,0.00,,,0.00,Wunderground v.1.15,2013-03-07 07:20:00,
2013-03-07 02:30:00,39.1,29.8,30.17,WSW,253,0.0,0.0,69,0.00,,,0.00,Wunderground v.1.15,2013-03-07 07:30:00,
2013-03-07 02:40:00,38.3,30.1,30.17,WSW,253,0.0,0.0,72,0.00,,,0.00,Wunderground v.1.15,2013-03-07 07:40:00,
2013-03-07 02:50:00,38.0,29.8,30.16,WSW,253,0.0,0.0,72,0.00,,,0.00,Wunderground v.1.15,2013-03-07 07:50:00,
2013-03-07 02:55:00,37.7,29.8,30.16,WSW,252,0.0,0.0,73,0.00,,,0.00,Wunderground v.1.15,2013-03-07 07:55:00,
2013-03-07 03:05:00,37.1,29.2,30.16,WSW,252,0.0,2.0,73,0.00,,,0.00,Wunderground v.1.15,2013-03-07 08:05:00,
2013-03-07 03:10:00,36.7,28.9,30.16,WSW,253,0.0,2.0,73,0.00,,,0.00,Wunderground v.1.15,2013-03-07 08:10:00,
2013-03-07 03:20:00,36.5,29.7,30.16,WSW,253,0.0,2.0,76,0.00,,,0.00,Wunderground v.1.15,2013-03-07 08:20:00,
2013-03-07 03:30:00,36.5,29.7,30.16,WSW,253,0.0,0.0,76,0.00,,,0.00,Wunderground v.1.15,2013-03-07 08:30:00,
2013-03-07 03:40:00,36.4,29.6,30.16,WSW,253,0.0,0.0,76,0.00,,,0.00,Wunderground v.1.15,2013-03-07 08:40:00,
2013-03-07 03:50:00,36.1,29.3,30.16,WSW,252,0.0,0.0,76,0.00,,,0.00,Wunderground v.1.15,2013-03-07 08:50:00,
2013-03-07 04:00:00,35.1,28.3,30.17,WSW,253,0.0,0.0,76,0.00,,,0.00,Wunderground v.1.15,2013-03-07 09:00:00,
2013-03-07 04:05:00,35.1,28.9,30.17,WSW,252,0.0,0.0,78,0.00,,,0.00,Wunderground v.1.15,2013-03-07 09:05:00,
2013-03-07 04:15:00,35.2,29.3,30.17,WSW,253,0.0,0.0,79,0.00,,,0.00,Wunderground v.1.15,2013-03-07 09:15:00,
2013-03-07 04:20:00,35.4,29.5,30.17,WSW,253,0.0,0.0,79,0.00,,,0.00,Wunderground v.1.15,2013-03-07 09:20:00,
2013-03-07 04:30:00,35.3,29.4,30.17,WSW,253,0.0,0.0,79,0.00,,,0.00,Wunderground v.1.15,2013-03-07 09:30:00,
2013-03-07 04:40:00,35.3,29.7,30.17,WSW,252,0.0,0.0,80,0.00,,,0.00,Wunderground v.1.15,2013-03-07 09:40:00,
2013-03-07 04:50:00,35.3,29.7,30.18,WSW,252,0.0,0.0,80,0.00,,,0.00,Wunderground v.1.15,2013-03-07 09:50:00,
2013-03-07 05:00:00,35.1,29.6,30.19,WSW,253,0.0,0.0,80,0.00,,,0.00,Wunderground v.1.15,2013-03-07 10:00:00,
2013-03-07 05:10:00,34.4,29.2,30.19,WSW,252,0.0,0.0,81,0.00,,,0.00,Wunderground v.1.15,2013-03-07 10:10:00,
2013-03-07 05:20:00,33.9,29.0,30.18,WSW,252,0.0,0.0,82,0.00,,,0.00,Wunderground v.1.15,2013-03-07 10:20:00,
2013-03-07 05:30:00,32.9,28.0,30.18,WSW,253,0.0,0.0,82,0.00,,,0.00,Wunderground v.1.15,2013-03-07 10:30:00,
2013-03-07 05:40:00,32.5,28.5,30.19,WSW,253,0.0,0.0,85,0.00,,,0.00,Wunderground v.1.15,2013-03-07 10:40:00,
2013-03-07 05:45:00,32.8,29.1,30.19,WSW,253,0.0,0.0,86,0.00,,,0.00,Wunderground v.1.15,2013-03-07 10:45:00,
2013-03-07 05:50:00,33.1,29.1,30.19,WSW,253,0.0,0.0,85,0.00,,,0.00,Wunderground v.1.15,2013-03-07 10:50:00,
2013-03-07 05:55:00,33.0,28.7,30.19,WSW,253,0.0,0.0,84,0.00,,,0.00,Wunderground v.1.15,2013-03-07 10:55:00,
2013-03-07 06:05:00,32.9,28.9,30.20,WSW,253,0.0,0.0,85,0.00,,,0.00,Wunderground v.1.15,2013-03-07 11:05:00,
2013-03-07 06:15:00,32.3,28.3,30.20,WSW,252,0.0,0.0,85,0.00,,,0.00,Wunderground v.1.15,2013-03-07 11:15:00,
2013-03-07 06:20:00,32.3,28.6,30.20,WSW,253,0.0,0.0,86,0.00,,,0.00,Wunderground v.1.15,2013-03-07 11:20:00,
2013-03-07 06:30:00,32.3,28.6,30.21,WSW,252,0.0,0.0,86,0.00,,,0.00,Wunderground v.1.15,2013-03-07 11:30:00,
2013-03-07 06:40:00,32.1,28.4,30.21,WSW,253,0.0,0.0,86,0.00,,,0.00,Wunderground v.1.15,2013-03-07 11:40:00,
2013-03-07 06:50:00,31.6,27.9,30.21,WSW,253,0.0,0.0,86,0.00,,,0.00,Wunderground v.1.15,2013-03-07 11:50:00,
2013-03-07 06:55:00,31.5,28.1,30.22,WSW,253,0.0,0.0,87,0.00,,,0.00,Wunderground v.1.15,2013-03-07 11:55:00,
2013-03-07 07:05:00,32.6,29.4,30.22,WSW,253,0.0,0.0,88,0.00,,,0.00,Wunderground v.1.15,2013-03-07 12:05:00,
2013-03-07 07:15:00,34.7,31.2,30.23,NW,305,0.0,0.0,87,0.00,,,0.00,Wunderground v.1.15,2013-03-07 12:15:00,
2013-03-07 07:20:00,35.7,31.9,30.23,NW,318,0.0,0.0,86,0.00,,,0.00,Wunderground v.1.15,2013-03-07 12:20:00,
2013-03-07 07:30:00,37.6,32.6,30.23,West,278,0.0,0.0,82,0.00,,,0.00,Wunderground v.1.15,2013-03-07 12:30:00,
2013-03-07 07:40:00,39.5,33.5,30.23,WSW,245,0.0,0.0,79,0.00,,,0.00,Wunderground v.1.15,2013-03-07 12:40:00,
2013-03-07 07:50:00,40.5,33.2,30.23,NNW,336,0.0,0.0,75,0.00,,,0.00,Wunderground v.1.15,2013-03-07 12:50:00,
2013-03-07 08:00:00,41.3,34.0,30.23,NW,314,1.0,1.0,75,0.00,,,0.00,Wunderground v.1.15,2013-03-07 13:00:00,
2013-03-07 08:10:00,42.2,34.2,30.24,NW,313,2.0,2.0,73,0.00,,,0.00,Wunderground v.1.15,2013-03-07 13:10:00,
2013-03-07 08:20:00,43.7,33.8,30.23,NE,38,3.0,5.0,68,0.00,,,0.00,Wunderground v.1.15,2013-03-07 13:20:00,
2013-03-07 08:30:00,44.6,33.9,30.24,NW,315,3.0,3.0,66,0.00,,,0.00,Wunderground v.1.15,2013-03-07 13:30:00,
2013-03-07 08:40:00,46.1,34.2,30.23,NNW,334,3.0,3.0,63,0.00,,,0.00,Wunderground v.1.15,2013-03-07 13:40:00,
2013-03-07 08:50:00,46.5,34.2,30.23,NNW,327,3.0,3.0,62,0.00,,,0.00,Wunderground v.1.15,2013-03-07 13:50:00,
2013-03-07 09:00:00,47.4,33.8,30.24,NE,46,3.0,7.0,59,0.00,,,0.00,Wunderground v.1.15,2013-03-07 14:00:00,
2013-03-07 09:10:00,48.4,35.1,30.24,NNW,332,4.0,4.0,60,0.00,,,0.00,Wunderground v.1.15,2013-03-07 14:10:00,
2013-03-07 09:20:00,49.5,35.3,30.24,NE,37,3.0,6.0,58,0.00,,,0.00,Wunderground v.1.15,2013-03-07 14:20:00,
2013-03-07 09:30:00,49.5,34.9,30.25,NNW,342,3.0,3.0,57,0.00,,,0.00,Wunderground v.1.15,2013-03-07 14:30:00,
2013-03-07 09:40:00,50.1,35.9,30.25,NNE,13,4.0,5.0,58,0.00,,,0.00,Wunderground v.1.15,2013-03-07 14:40:00,
2013-03-07 09:50:00,50.9,36.2,30.25,NNE,32,4.0,5.0,57,0.00,,,0.00,Wunderground v.1.15,2013-03-07 14:50:00,
2013-03-07 10:00:00,51.3,36.1,30.25,NNW,330,4.0,4.0,56,0.00,,,0.00,Wunderground v.1.15,2013-03-07 15:00:00,
2013-03-07 10:09:00,52.0,36.3,30.25,NNE,29,3.0,10.0,55,0.00,,,0.00,Wunderground v.1.15,2013-03-07 15:09:00,
2013-03-07 10:15:00,52.6,36.9,30.25,NW,315,4.0,10.0,55,0.00,,,0.00,Wunderground v.1.15,2013-03-07 15:15:00,
2013-03-07 10:25:00,53.3,36.6,30.25,NNW,342,2.0,10.0,53,0.00,,,0.00,Wunderground v.1.15,2013-03-07 15:25:00,
2013-03-07 10:35:00,53.9,37.1,30.25,WNW,301,2.0,3.0,53,0.00,,,0.00,Wunderground v.1.15,2013-03-07 15:35:00,
2013-03-07 10:40:00,54.5,37.7,30.25,NNE,27,2.0,4.0,53,0.00,,,0.00,Wunderground v.1.15,2013-03-07 15:40:00,
2013-03-07 10:50:00,54.8,36.5,30.25,ENE,60,3.0,3.0,50,0.00,,,0.00,Wunderground v.1.15,2013-03-07 15:50:00,
2013-03-07 11:00:00,55.4,36.0,30.25,ESE,121,2.0,2.0,48,0.00,,,0.00,Wunderground v.1.15,2013-03-07 16:00:00,
2013-03-07 11:10:00,56.4,36.4,30.25,NNE,32,2.0,11.0,47,0.00,,,0.00,Wunderground v.1.15,2013-03-07 16:10:00,
2013-03-07 11:20:00,57.3,36.1,30.25,WSW,256,2.0,2.0,45,0.00,,,0.00,Wunderground v.1.15,2013-03-07 16:20:00,
2013-03-07 11:25:00,58.1,36.9,30.24,NNW,340,1.0,2.0,45,0.00,,,0.00,Wunderground v.1.15,2013-03-07 16:25:00,
2013-03-07 11:35:00,58.3,36.5,30.24,East,80,2.0,3.0,44,0.00,,,0.00,Wunderground v.1.15,2013-03-07 16:35:00,
2013-03-07 11:40:00,58.7,36.2,30.24,ENE,65,2.0,2.0,43,0.00,,,0.00,Wunderground v.1.15,2013-03-07 16:40:00,
2013-03-07 11:50:00,59.2,36.7,30.23,ENE,66,2.0,4.0,43,0.00,,,0.00,Wunderground v.1.15,2013-03-07 16:50:00,
2013-03-07 11:55:00,59.4,35.7,30.23,North,6,2.0,4.0,41,0.00,,,0.00,Wunderground v.1.15,2013-03-07 16:55:00,
2013-03-07 12:05:00,60.7,36.8,30.22,NNE,26,1.0,9.0,41,0.00,,,0.00,Wunderground v.1.15,2013-03-07 17:05:00,
2013-03-07 12:15:00,61.1,36.6,30.22,NNW,330,3.0,9.0,40,0.00,,,0.00,Wunderground v.1.15,2013-03-07 17:15:00,
2013-03-07 12:25:00,61.4,36.8,30.22,West,269,1.0,1.0,40,0.00,,,0.00,Wunderground v.1.15,2013-03-07 17:25:00,
2013-03-07 12:35:00,63.7,37.6,30.22,WSW,242,0.0,0.0,38,0.00,,,0.00,Wunderground v.1.15,2013-03-07 17:35:00,
2013-03-07 12:45:00,63.3,36.6,30.22,SW,235,1.0,2.0,37,0.00,,,0.00,Wunderground v.1.15,2013-03-07 17:45:00,
2013-03-07 12:50:00,64.1,38.0,30.22,NW,307,2.0,3.0,38,0.00,,,0.00,Wunderground v.1.15,2013-03-07 17:50:00,
2013-03-07 13:00:00,63.5,36.0,30.22,NNW,336,3.0,3.0,36,0.00,,,0.00,Wunderground v.1.15,2013-03-07 18:00:00,
2013-03-07 13:10:00,63.3,35.9,30.21,NNE,15,4.0,4.0,36,0.00,,,0.00,Wunderground v.1.15,2013-03-07 18:10:00,
2013-03-07 13:15:00,63.2,35.8,30.21,NW,326,5.0,5.0,36,0.00,,,0.00,Wunderground v.1.15,2013-03-07 18:15:00,
2013-03-07 13:24:00,63.2,36.5,30.21,NNE,26,4.0,7.0,37,0.00,,,0.00,Wunderground v.1.15,2013-03-07 18:24:00,
2013-03-07 13:30:00,62.9,35.5,30.20,NNE,25,4.0,4.0,36,0.00,,,0.00,Wunderground v.1.15,2013-03-07 18:30:00,
2013-03-07 13:40:00,62.9,36.9,30.20,WSW,250,3.0,3.0,38,0.00,,,0.00,Wunderground v.1.15,2013-03-07 18:40:00,
2013-03-07 13:50:00,63.5,36.0,30.20,NE,45,3.0,4.0,36,0.00,,,0.00,Wunderground v.1.15,2013-03-07 18:50:00,
2013-03-07 14:00:00,64.3,37.5,30.20,NE,54,1.0,4.0,37,0.00,,,0.00,Wunderground v.1.15,2013-03-07 19:00:00,
2013-03-07 14:10:00,64.8,37.2,30.19,NNW,333,2.0,2.0,36,0.00,,,0.00,Wunderground v.1.15,2013-03-07 19:10:00,
2013-03-07 14:20:00,65.4,37.0,30.18,ENE,57,1.0,10.0,35,0.00,,,0.00,Wunderground v.1.15,2013-03-07 19:20:00,
2013-03-07 14:30:00,64.8,36.5,30.17,SE,143,3.0,3.0,35,0.00,,,0.00,Wunderground v.1.15,2013-03-07 19:30:00,
2013-03-07 14:40:00,65.6,37.2,30.17,NE,43,1.0,3.0,35,0.00,,,0.00,Wunderground v.1.15,2013-03-07 19:40:00,
2013-03-07 14:50:00,66.0,38.3,30.17,ENE,58,2.0,4.0,36,0.00,,,0.00,Wunderground v.1.15,2013-03-07 19:50:00,
2013-03-07 15:00:00,66.5,36.5,30.17,North,353,3.0,5.0,33,0.00,,,0.00,Wunderground v.1.15,2013-03-07 20:00:00,
2013-03-07 15:05:00,66.7,35.9,30.16,SW,229,2.0,10.0,32,0.00,,,0.00,Wunderground v.1.15,2013-03-07 20:05:00,
2013-03-07 15:15:00,67.9,36.1,30.16,North,354,1.0,10.0,31,0.00,,,0.00,Wunderground v.1.15,2013-03-07 20:15:00,
2013-03-07 15:25:00,68.2,34.7,30.16,NNE,15,2.0,10.0,29,0.00,,,0.00,Wunderground v.1.15,2013-03-07 20:25:00,
2013-03-07 15:35:00,67.4,34.9,30.16,NNW,339,2.0,2.0,30,0.00,,,0.00,Wunderground v.1.15,2013-03-07 20:35:00,
2013-03-07 15:45:00,67.8,34.4,30.16,SW,226,2.0,4.0,29,0.00,,,0.00,Wunderground v.1.15,2013-03-07 20:45:00,
2013-03-07 15:50:00,67.6,34.2,30.16,NNE,26,2.0,4.0,29,0.00,,,0.00,Wunderground v.1.15,2013-03-07 20:50:00,
2013-03-07 15:55:00,67.8,34.4,30.17,North,8,2.0,4.0,29,0.00,,,0.00,Wunderground v.1.15,2013-03-07 20:55:00,
2013-03-07 16:05:00,67.6,34.2,30.17,NE,38,2.0,8.0,29,0.00,,,0.00,Wunderground v.1.15,2013-03-07 21:05:00,
2013-03-07 16:14:00,67.5,35.0,30.17,NNW,333,2.0,8.0,30,0.00,,,0.00,Wunderground v.1.15,2013-03-07 21:14:00,
2013-03-07 16:20:00,68.2,35.6,30.17,WSW,255,2.0,8.0,30,0.00,,,0.00,Wunderground v.1.15,2013-03-07 21:20:00,
2013-03-07 16:30:00,67.7,35.1,30.16,NW,316,1.0,1.0,30,0.00,,,0.00,Wunderground v.1.15,2013-03-07 21:30:00,
2013-03-07 16:39:00,68.1,34.6,30.16,West,267,1.0,1.0,29,0.00,,,0.00,Wunderground v.1.15,2013-03-07 21:39:00,
2013-03-07 16:45:00,68.8,34.3,30.16,NNW,337,1.0,1.0,28,0.00,,,0.00,Wunderground v.1.15,2013-03-07 21:45:00,
2013-03-07 16:55:00,67.5,35.0,30.16,NNW,333,1.0,1.0,30,0.00,,,0.00,Wunderground v.1.15,2013-03-07 21:55:00,
2013-03-07 17:00:00,68.1,39.4,30.16,NNW,347,0.0,1.0,35,0.00,,,0.00,Wunderground v.1.15,2013-03-07 22:00:00,
2013-03-07 17:10:00,68.2,34.7,30.16,NE,39,1.0,8.0,29,0.00,,,0.00,Wunderground v.1.15,2013-03-07 22:10:00,
2013-03-07 17:20:00,66.4,34.0,30.16,NE,52,2.0,2.0,30,0.00,,,0.00,Wunderground v.1.15,2013-03-07 22:20:00,
2013-03-07 17:25:00,66.2,34.7,30.16,NNE,13,0.0,2.0,31,0.00,,,0.00,Wunderground v.1.15,2013-03-07 22:25:00,
2013-03-07 17:35:00,65.9,33.6,30.16,NNW,343,0.0,1.0,30,0.00,,,0.00,Wunderground v.1.15,2013-03-07 22:35:00,
2013-03-07 17:45:00,64.6,34.1,30.16,North,10,0.0,0.0,32,0.00,,,0.00,Wunderground v.1.15,2013-03-07 22:45:00,
2013-03-07 17:55:00,63.8,33.4,30.16,SSW,211,0.0,0.0,32,0.00,,,0.00,Wunderground v.1.15,2013-03-07 22:55:00,
2013-03-07 18:05:00,62.8,34.0,30.16,SSW,211,0.0,4.0,34,0.00,,,0.00,Wunderground v.1.15,2013-03-07 23:05:00,
2013-03-07 18:15:00,61.1,34.6,30.16,SSW,212,0.0,4.0,37,0.00,,,0.00,Wunderground v.1.15,2013-03-07 23:15:00,
2013-03-07 18:25:00,59.3,35.0,30.16,SSW,211,0.0,4.0,40,0.00,,,0.00,Wunderground v.1.15,2013-03-07 23:25:00,
2013-03-07 18:35:00,56.6,34.3,30.17,SSW,211,0.0,0.0,43,0.00,,,0.00,Wunderground v.1.15,2013-03-07 23:35:00,
2013-03-07 18:40:00,55.0,33.5,30.17,SSW,211,0.0,0.0,44,0.00,,,0.00,Wunderground v.1.15,2013-03-07 23:40:00,
2013-03-07 18:49:00,52.5,34.4,30.18,SSW,211,0.0,0.0,50,0.00,,,0.00,Wunderground v.1.15,2013-03-07 23:49:00,
2013-03-07 18:55:00,51.1,34.1,30.18,SSW,211,0.0,0.0,52,0.00,,,0.00,Wunderground v.1.15,2013-03-07 23:55:00,
2013-03-07 19:05:00,49.1,35.8,30.19,SSW,211,0.0,1.0,60,0.00,,,0.00,Wunderground v.1.15,2013-03-08 00:05:00,
2013-03-07 19:15:00,48.9,36.9,30.19,SW,222,0.0,1.0,63,0.00,,,0.00,Wunderground v.1.15,2013-03-08 00:15:00,
2013-03-07 19:25:00,49.0,38.1,30.20,NNW,345,0.0,2.0,66,0.00,,,0.00,Wunderground v.1.15,2013-03-08 00:25:00,
2013-03-07 19:30:00,49.6,37.5,30.20,NNW,345,0.0,0.0,63,0.00,,,0.00,Wunderground v.1.15,2013-03-08 00:30:00,
2013-03-07 19:40:00,51.4,38.8,30.20,NNW,341,0.0,0.0,62,0.00,,,0.00,Wunderground v.1.15,2013-03-08 00:40:00,
2013-03-07 19:50:00,52.1,39.1,30.20,North,4,0.0,0.0,61,0.00,,,0.00,Wunderground v.1.15,2013-03-08 00:50:00,
2013-03-07 20:00:00,52.2,39.1,30.20,West,280,0.0,0.0,61,0.00,,,0.00,Wunderground v.1.15,2013-03-08 01:00:00,
2013-03-07 20:10:00,51.9,39.3,30.20,NW,319,0.0,0.0,62,0.00,,,0.00,Wunderground v.1.15,2013-03-08 01:10:00,
2013-03-07 20:15:00,51.4,39.2,30.20,NNW,336,0.0,0.0,63,0.00,,,0.00,Wunderground v.1.15,2013-03-08 01:15:00,
2013-03-07 20:25:00,51.0,39.2,30.21,NNW,334,0.0,0.0,64,0.00,,,0.00,Wunderground v.1.15,2013-03-08 01:25:00,
2013-03-07 20:35:00,50.6,39.7,30.21,SSW,196,0.0,0.0,66,0.00,,,0.00,Wunderground v.1.15,2013-03-08 01:35:00,
2013-03-07 20:45:00,50.1,39.6,30.22,WSW,252,0.0,0.0,67,0.00,,,0.00,Wunderground v.1.15,2013-03-08 01:45:00,
2013-03-07 20:55:00,49.5,39.4,30.22,WSW,246,0.0,0.0,68,0.00,,,0.00,Wunderground v.1.15,2013-03-08 01:55:00,
2013-03-07 21:05:00,49.1,39.7,30.22,WNW,291,0.0,2.0,70,0.00,,,0.00,Wunderground v.1.15,2013-03-08 02:05:00,
2013-03-07 21:15:00,48.6,39.6,30.22,NNW,333,0.0,2.0,71,0.00,,,0.00,Wunderground v.1.15,2013-03-08 02:15:00,
2013-03-07 21:24:00,48.1,39.5,30.22,West,262,0.0,2.0,72,0.00,,,0.00,Wunderground v.1.15,2013-03-08 02:24:00,
2013-03-07 21:30:00,47.8,39.6,30.22,West,262,0.0,0.0,73,0.00,,,0.00,Wunderground v.1.15,2013-03-08 02:30:00,
2013-03-07 21:40:00,47.3,39.4,30.23,West,264,0.0,0.0,74,0.00,,,0.00,Wunderground v.1.15,2013-03-08 02:40:00,
2013-03-07 21:50:00,46.5,39.3,30.23,West,271,0.0,0.0,76,0.00,,,0.00,Wunderground v.1.15,2013-03-08 02:50:00,
2013-03-07 22:00:00,45.4,38.6,30.22,West,271,0.0,0.0,77,0.00,,,0.00,Wunderground v.1.15,2013-03-08 03:00:00,
2013-03-07 22:10:00,44.5,38.4,30.22,West,271,0.0,2.0,79,0.00,,,0.00,Wunderground v.1.15,2013-03-08 03:10:00,
2013-03-07 22:20:00,43.3,37.9,30.23,West,271,0.0,2.0,81,0.00,,,0.00,Wunderground v.1.15,2013-03-08 03:20:00,
2013-03-07 22:30:00,41.3,36.5,30.23,NE,51,0.0,0.0,83,0.00,,,0.00,Wunderground v.1.15,2013-03-08 03:30:00,
2013-03-07 22:35:00,41.2,37.3,30.23,ENE,57,0.0,0.0,86,0.00,,,0.00,Wunderground v.1.15,2013-03-08 03:35:00,
2013-03-07 22:45:00,40.4,36.5,30.23,ENE,72,0.0,0.0,86,0.00,,,0.00,Wunderground v.1.15,2013-03-08 03:45:00,
2013-03-07 22:55:00,40.2,36.6,30.24,ENE,72,0.0,0.0,87,0.00,,,0.00,Wunderground v.1.15,2013-03-08 03:55:00,
2013-03-07 23:05:00,40.8,37.8,30.24,ENE,72,0.0,1.0,89,0.00,,,0.00,Wunderground v.1.15,2013-03-08 04:05:00,
2013-03-07 23:15:00,40.0,36.7,30.24,ENE,72,0.0,1.0,88,0.00,,,0.00,Wunderground v.1.15,2013-03-08 04:15:00,
2013-03-07 23:25:00,39.2,35.7,30.23,ENE,72,0.0,1.0,87,0.00,,,0.00,Wunderground v.1.15,2013-03-08 04:25:00,
2013-03-07 23:35:00,38.9,35.9,30.24,ENE,72,0.0,0.0,89,0.00,,,0.00,Wunderground v.1.15,2013-03-08 04:35:00,
2013-03-07 23:45:00,39.0,36.6,30.23,East,80,0.0,0.0,91,0.00,,,0.00,Wunderground v.1.15,2013-03-08 04:45:00,
2013-03-07 23:50:00,39.4,37.0,30.23,West,273,0.0,0.0,91,0.00,,,0.00,Wunderground v.1.15,2013-03-08 04:50:00,